Time;durP1;ratioP1;P1;durP2;ratioP2;P2;SDS_P1;SDS_P2;PMS_P1;PMS_P2;Temp;Humidity;BMP_temperature;BMP_pressure;BME280_temperature;BME280_humidity;BME280_pressure;Samples;Min_cycle;Max_cycle;Signal;HPM_P1;HPM_P2
2023/05/07 00:02:01;;;;;;;5.27;4.83;;;;;;;;;;4994762;28;20490;-64
2023/05/07 00:04:28;;;;;;;4.60;4.10;;;;;;;;;;4995014;28;20493;-64
2023/05/07 00:06:56;;;;;;;5.70;5.20;;;;;;;;;;4995561;28;20415;-64
2023/05/07 00:09:22;;;;;;;7.23;4.47;;;;;;;;;;4995224;28;20784;-64
2023/05/07 00:11:48;;;;;;;5.10;4.70;;;;;;;;;;4994379;28;20976;-64
2023/05/07 00:14:14;;;;;;;4.83;4.57;;;;;;;;;;4994159;28;20518;-64
2023/05/07 00:16:40;;;;;;;3.92;3.72;;;;;;;;;;4993546;28;20409;-63
2023/05/07 00:19:06;;;;;;;4.80;4.40;;;;;;;;;;4993625;28;20230;-63
2023/05/07 00:21:32;;;;;;;4.50;4.30;;;;;;;;;;4994154;28;20502;-63
2023/05/07 00:23:58;;;;;;;3.60;3.50;;;;;;;;;;4994122;28;20411;-63
2023/05/07 00:26:24;;;;;;;4.70;4.40;;;;;;;;;;4993974;28;20424;-63
2023/05/07 00:28:50;;;;;;;4.90;4.50;;;;;;;;;;4993806;28;20423;-63
2023/05/07 00:31:16;;;;;;;4.67;4.47;;;;;;;;;;4993800;28;20434;-63
2023/05/07 00:33:42;;;;;;;4.80;4.50;;;;;;;;;;4993937;28;20892;-63
2023/05/07 00:36:08;;;;;;;4.40;4.07;;;;;;;;;;4993736;28;20434;-63
2023/05/07 00:38:34;;;;;;;8.10;5.00;;;;;;;;;;4993469;28;20469;-63
2023/05/07 00:40:59;;;;;;;5.20;4.90;;;;;;;;;;4993659;28;20421;-63
2023/05/07 00:43:30;;;;;;;5.37;4.97;;;;;;;;;;4993675;28;20965;-64
2023/05/07 00:45:56;;;;;;;4.70;4.47;;;;;;;;;;4993610;28;20391;-63
2023/05/07 00:48:24;;;;;;;5.33;4.53;;;;;;;;;;4993472;28;20433;-63
2023/05/07 00:50:50;;;;;;;4.60;4.10;;;;;;;;;;4993553;28;20433;-63
2023/05/07 00:53:18;;;;;;;4.93;4.63;;;;;;;;;;4993443;28;20443;-64
2023/05/07 00:55:44;;;;;;;4.60;4.30;;;;;;;;;;4993287;28;20832;-63
2023/05/07 00:58:10;;;;;;;4.80;4.60;;;;;;;;;;4993249;28;20467;-63
2023/05/07 01:00:36;;;;;;;7.50;4.50;;;;;;;;;;4991978;28;20446;-63
2023/05/07 01:03:02;;;;;;;6.77;5.60;;;;;;;;;;4993126;28;20931;-63
2023/05/07 01:05:28;;;;;;;5.57;5.27;;;;;;;;;;4993127;28;20417;-63
2023/05/07 01:07:55;;;;;;;5.20;4.90;;;;;;;;;;4993217;28;20434;-63
2023/05/07 01:10:21;;;;;;;5.10;4.77;;;;;;;;;;4991890;28;20569;-63
2023/05/07 01:12:48;;;;;;;4.73;4.47;;;;;;;;;;4993121;28;20438;-63
2023/05/07 01:15:15;;;;;;;9.80;5.50;;;;;;;;;;4991727;28;20509;-63
2023/05/07 01:17:41;;;;;;;6.03;4.80;;;;;;;;;;4992889;28;20463;-63
2023/05/07 01:20:08;;;;;;;4.97;4.57;;;;;;;;;;4992992;28;20414;-63
2023/05/07 01:22:38;;;;;;;5.40;5.00;;;;;;;;;;4993024;28;20419;-64
2023/05/07 01:25:04;;;;;;;4.57;4.37;;;;;;;;;;4992711;28;20434;-63
2023/05/07 01:27:33;;;;;;;4.70;4.50;;;;;;;;;;4992913;28;20526;-63
2023/05/07 01:29:59;;;;;;;5.97;5.47;;;;;;;;;;4993063;28;20414;-63
2023/05/07 01:32:48;;;;;;;5.20;4.80;;;;;;;;;;4992104;28;20497;-63
2023/05/07 01:35:19;;;;;;;4.73;4.30;;;;;;;;;;4993114;28;20414;-63
2023/05/07 01:37:46;;;;;;;4.40;4.30;;;;;;;;;;4992707;28;20855;-63
2023/05/07 01:40:15;;;;;;;5.67;5.17;;;;;;;;;;4992776;28;20414;-60
2023/05/07 01:42:42;;;;;;;5.23;4.83;;;;;;;;;;4992691;28;20493;-63
2023/05/07 01:45:08;;;;;;;5.00;4.80;;;;;;;;;;4992898;28;20408;-63
2023/05/07 01:47:34;;;;;;;5.90;5.43;;;;;;;;;;4992667;28;20413;-63
2023/05/07 01:50:00;;;;;;;5.23;4.93;;;;;;;;;;4992829;28;20425;-63
2023/05/07 01:52:30;;;;;;;4.37;4.17;;;;;;;;;;4991548;28;20422;-63
2023/05/07 01:54:56;;;;;;;5.50;5.00;;;;;;;;;;4992663;28;20473;-63
2023/05/07 01:57:22;;;;;;;5.63;5.13;;;;;;;;;;4992602;28;20836;-63
2023/05/07 01:59:48;;;;;;;5.10;4.80;;;;;;;;;;4992372;28;20493;-63
2023/05/07 02:02:14;;;;;;;4.43;4.10;;;;;;;;;;4992561;28;20413;-63
2023/05/07 02:04:42;;;;;;;4.37;3.97;;;;;;;;;;4992602;28;20421;-63
2023/05/07 02:07:08;;;;;;;5.13;4.67;;;;;;;;;;4992602;28;20916;-63
2023/05/07 02:09:34;;;;;;;5.00;4.60;;;;;;;;;;4992641;28;20908;-63
2023/05/07 02:12:01;;;;;;;5.90;4.70;;;;;;;;;;4992522;28;20556;-63
2023/05/07 02:14:27;;;;;;;10.43;4.73;;;;;;;;;;4992516;28;20496;-63
2023/05/07 02:16:55;;;;;;;4.50;4.17;;;;;;;;;;4992373;28;20572;-63
2023/05/07 02:19:21;;;;;;;4.67;4.37;;;;;;;;;;4992388;28;20997;-63
2023/05/07 02:21:48;;;;;;;5.20;4.80;;;;;;;;;;4991052;28;20429;-63
2023/05/07 02:24:14;;;;;;;5.83;4.73;;;;;;;;;;4991380;28;20975;-63
2023/05/07 02:26:41;;;;;;;7.10;5.20;;;;;;;;;;4992795;28;20800;-63
2023/05/07 02:29:07;;;;;;;4.80;4.60;;;;;;;;;;4992453;28;20748;-63
2023/05/07 02:31:33;;;;;;;4.83;4.07;;;;;;;;;;4992353;28;20413;-63
2023/05/07 02:34:02;;;;;;;5.90;4.80;;;;;;;;;;4992272;28;20810;-63
2023/05/07 02:36:28;;;;;;;5.03;4.60;;;;;;;;;;4992245;28;20502;-63
2023/05/07 02:38:54;;;;;;;5.30;4.97;;;;;;;;;;4992238;28;20563;-63
2023/05/07 02:41:20;;;;;;;8.20;4.90;;;;;;;;;;4992451;28;20430;-63
2023/05/07 02:43:46;;;;;;;5.23;4.73;;;;;;;;;;4994729;28;20924;-63
2023/05/07 02:46:12;;;;;;;7.77;4.63;;;;;;;;;;4995761;28;20832;-63
2023/05/07 02:48:38;;;;;;;3.90;3.70;;;;;;;;;;4995971;28;20481;-63
2023/05/07 02:51:05;;;;;;;4.43;4.00;;;;;;;;;;4995521;28;20442;-63
2023/05/07 02:53:31;;;;;;;4.73;4.43;;;;;;;;;;4995724;28;20441;-63
2023/05/07 02:55:58;;;;;;;4.10;4.00;;;;;;;;;;4995554;28;20437;-63
2023/05/07 02:58:24;;;;;;;6.43;4.33;;;;;;;;;;4995444;28;20567;-63
2023/05/07 03:00:50;;;;;;;4.73;4.40;;;;;;;;;;4995299;28;20783;-63
2023/05/07 03:03:16;;;;;;;7.10;3.57;;;;;;;;;;4995616;28;20409;-63
2023/05/07 03:05:43;;;;;;;4.60;4.20;;;;;;;;;;4995479;28;20983;-63
2023/05/07 03:08:11;;;;;;;4.83;4.63;;;;;;;;;;4995396;28;20756;-63
2023/05/07 03:10:37;;;;;;;8.03;4.30;;;;;;;;;;4995546;28;20464;-63
2023/05/07 03:13:04;;;;;;;5.50;4.60;;;;;;;;;;4995353;28;20433;-63
2023/05/07 03:15:32;;;;;;;4.57;4.30;;;;;;;;;;4994038;28;20448;-63
2023/05/07 03:17:58;;;;;;;4.70;4.50;;;;;;;;;;4995306;28;20484;-63
2023/05/07 03:20:24;;;;;;;4.63;3.70;;;;;;;;;;4995454;28;20398;-63
2023/05/07 03:22:50;;;;;;;6.67;3.90;;;;;;;;;;4995206;28;20429;-63
2023/05/07 03:25:16;;;;;;;6.03;4.57;;;;;;;;;;4995199;28;20791;-63
2023/05/07 03:27:45;;;;;;;4.80;4.43;;;;;;;;;;4995203;28;20476;-63
2023/05/07 03:30:11;;;;;;;4.20;4.10;;;;;;;;;;4995035;28;20448;-63
2023/05/07 03:32:37;;;;;;;4.70;4.40;;;;;;;;;;4995106;28;20429;-63
2023/05/07 03:35:03;;;;;;;4.13;3.93;;;;;;;;;;4994881;28;20445;-63
2023/05/07 03:37:29;;;;;;;4.37;4.27;;;;;;;;;;4994934;28;20455;-63
2023/05/07 03:40:00;;;;;;;4.93;4.63;;;;;;;;;;4994988;28;20544;-63
2023/05/07 03:42:26;;;;;;;4.13;4.00;;;;;;;;;;4994884;28;20433;-63
2023/05/07 03:44:54;;;;;;;5.53;4.10;;;;;;;;;;4994845;28;20508;-63
2023/05/07 03:47:20;;;;;;;6.27;4.03;;;;;;;;;;4994759;28;20430;-63
2023/05/07 03:49:47;;;;;;;4.27;3.97;;;;;;;;;;4994725;28;20445;-62
2023/05/07 03:52:14;;;;;;;12.63;4.23;;;;;;;;;;4994571;28;20449;-63
2023/05/07 03:54:40;;;;;;;5.70;4.10;;;;;;;;;;4993467;28;20517;-63
2023/05/07 03:57:06;;;;;;;4.20;4.10;;;;;;;;;;4994469;28;20517;-63
2023/05/07 03:59:32;;;;;;;4.30;4.20;;;;;;;;;;4994678;28;20472;-64
2023/05/07 04:01:58;;;;;;;4.23;3.93;;;;;;;;;;4994677;28;20480;-63
2023/05/07 04:04:24;;;;;;;5.27;3.80;;;;;;;;;;4994597;28;20412;-63
2023/05/07 04:06:53;;;;;;;4.20;4.00;;;;;;;;;;4994995;28;20489;-64
2023/05/07 04:09:19;;;;;;;4.60;4.17;;;;;;;;;;4994577;28;20507;-63
2023/05/07 04:11:45;;;;;;;4.57;4.40;;;;;;;;;;4994565;28;20426;-64
2023/05/07 04:14:11;;;;;;;4.37;3.93;;;;;;;;;;4994502;28;20472;-63
2023/05/07 04:16:37;;;;;;;4.90;4.50;;;;;;;;;;4994503;28;20468;-64
2023/05/07 04:19:05;;;;;;;10.73;4.90;;;;;;;;;;4994271;28;20999;-64
2023/05/07 04:21:31;;;;;;;4.17;4.00;;;;;;;;;;4993077;28;20445;-64
2023/05/07 04:23:57;;;;;;;4.60;4.13;;;;;;;;;;4994399;28;20457;-64
2023/05/07 04:26:24;;;;;;;11.90;4.37;;;;;;;;;;4994272;28;20468;-64
2023/05/07 04:28:50;;;;;;;5.90;4.33;;;;;;;;;;4994756;28;20465;-62
2023/05/07 04:31:16;;;;;;;3.93;3.83;;;;;;;;;;4994121;28;20782;-64
2023/05/07 04:33:44;;;;;;;6.70;4.60;;;;;;;;;;4994048;28;20404;-64
2023/05/07 04:36:10;;;;;;;5.17;4.60;;;;;;;;;;4993972;28;20500;-61
2023/05/07 04:38:37;;;;;;;4.77;4.50;;;;;;;;;;4993998;28;20473;-62
2023/05/07 04:41:03;;;;;;;4.30;4.10;;;;;;;;;;4992568;28;20556;-61
2023/05/07 04:43:32;;;;;;;4.23;4.10;;;;;;;;;;4992299;28;20414;-62
2023/05/07 04:45:58;;;;;;;4.53;4.30;;;;;;;;;;4993839;28;20418;-63
2023/05/07 04:48:24;;;;;;;5.03;4.73;;;;;;;;;;4993783;28;20441;-62
2023/05/07 04:50:51;;;;;;;4.93;4.60;;;;;;;;;;4993869;28;20476;-62
2023/05/07 04:53:17;;;;;;;4.17;3.90;;;;;;;;;;4993533;28;20464;-62
2023/05/07 04:55:46;;;;;;;4.43;4.23;;;;;;;;;;4993526;28;20417;-61
2023/05/07 04:58:12;;;;;;;6.63;4.00;;;;;;;;;;4993494;28;20885;-62
2023/05/07 05:00:39;;;;;;;5.37;4.80;;;;;;;;;;4991960;28;20445;-62
2023/05/07 05:03:05;;;;;;;5.53;4.40;;;;;;;;;;4992772;28;20497;-62
2023/05/07 05:05:31;;;;;;;5.20;4.63;;;;;;;;;;4991108;28;20861;-63
2023/05/07 05:07:57;;;;;;;4.00;3.90;;;;;;;;;;4992633;28;20456;-63
2023/05/07 05:10:23;;;;;;;5.50;5.10;;;;;;;;;;4991084;28;20559;-62
2023/05/07 05:12:49;;;;;;;5.40;4.87;;;;;;;;;;4991338;28;20429;-62
2023/05/07 05:15:15;;;;;;;5.13;4.60;;;;;;;;;;4992348;28;20937;-62
2023/05/07 05:17:41;;;;;;;4.73;4.33;;;;;;;;;;4992079;28;20524;-62
2023/05/07 05:20:09;;;;;;;5.60;4.53;;;;;;;;;;4992317;28;20425;-62
2023/05/07 05:22:35;;;;;;;7.67;4.73;;;;;;;;;;4992344;28;20429;-62
2023/05/07 05:25:01;;;;;;;4.80;4.47;;;;;;;;;;4992614;28;20413;-62
2023/05/07 05:27:27;;;;;;;5.10;4.90;;;;;;;;;;4992361;28;20484;-62
2023/05/07 05:29:53;;;;;;;4.50;4.37;;;;;;;;;;4991191;28;20866;-62
2023/05/07 05:32:21;;;;;;;5.20;4.80;;;;;;;;;;4992225;28;20525;-62
2023/05/07 05:34:48;;;;;;;7.57;6.43;;;;;;;;;;4992236;28;20489;-62
2023/05/07 05:37:16;;;;;;;6.03;5.73;;;;;;;;;;4992109;28;20476;-62
2023/05/07 05:39:42;;;;;;;5.20;4.90;;;;;;;;;;4992141;28;20474;-62
2023/05/07 05:42:10;;;;;;;6.40;4.90;;;;;;;;;;4992638;28;20921;-62
2023/05/07 05:44:36;;;;;;;5.20;4.90;;;;;;;;;;4992642;28;20780;-62
2023/05/07 05:47:03;;;;;;;16.70;14.67;;;;;;;;;;4992395;28;20414;-62
2023/05/07 05:49:32;;;;;;;9.00;5.70;;;;;;;;;;4992178;28;20441;-62
2023/05/07 05:51:58;;;;;;;10.30;5.80;;;;;;;;;;4992408;28;20435;-62
2023/05/07 05:54:24;;;;;;;6.77;5.00;;;;;;;;;;4992200;28;20448;-62
2023/05/07 05:56:50;;;;;;;6.00;5.60;;;;;;;;;;4991983;28;20410;-62
2023/05/07 05:59:18;;;;;;;5.67;5.10;;;;;;;;;;4991613;28;20980;-63
2023/05/07 06:01:44;;;;;;;4.90;4.80;;;;;;;;;;4955439;28;1069014;-64
2023/05/07 06:04:10;;;;;;;5.30;5.00;;;;;;;;;;4992716;28;20171;-64
2023/05/07 06:06:38;;;;;;;6.10;5.70;;;;;;;;;;4992534;28;20424;-65
2023/05/07 06:09:06;;;;;;;5.90;5.33;;;;;;;;;;4992611;28;20431;-62
2023/05/07 06:11:32;;;;;;;8.20;6.03;;;;;;;;;;4992537;28;20443;-62
2023/05/07 06:13:58;;;;;;;7.83;7.03;;;;;;;;;;4992592;28;20988;-64
2023/05/07 06:16:25;;;;;;;8.03;7.50;;;;;;;;;;4992456;28;20447;-64
2023/05/07 06:18:51;;;;;;;9.00;8.07;;;;;;;;;;4994660;28;20550;-65
2023/05/07 06:21:17;;;;;;;8.50;7.50;;;;;;;;;;4996249;28;20502;-65
2023/05/07 06:23:43;;;;;;;9.63;8.57;;;;;;;;;;4996238;28;20407;-64
2023/05/07 06:26:11;;;;;;;9.07;8.17;;;;;;;;;;4996180;28;20466;-63
2023/05/07 06:28:37;;;;;;;9.03;8.43;;;;;;;;;;4995980;28;20420;-65
2023/05/07 06:31:13;;;;;;;8.70;7.90;;;;;;;;;;4996125;28;20423;-64
2023/05/07 06:33:39;;;;;;;12.33;7.83;;;;;;;;;;4995954;28;20439;-64
2023/05/07 06:36:08;;;;;;;9.60;8.70;;;;;;;;;;4995992;28;20432;-65
2023/05/07 06:38:34;;;;;;;8.27;7.67;;;;;;;;;;4995922;28;20487;-64
2023/05/07 06:41:00;;;;;;;7.93;7.40;;;;;;;;;;4996108;28;20396;-64
2023/05/07 06:43:26;;;;;;;12.03;7.60;;;;;;;;;;4995885;28;20787;-62
2023/05/07 06:45:52;;;;;;;8.87;8.27;;;;;;;;;;4994449;28;20485;-64
2023/05/07 06:48:18;;;;;;;12.80;8.53;;;;;;;;;;4995880;28;20416;-62
2023/05/07 06:50:46;;;;;;;9.77;8.90;;;;;;;;;;4995700;28;20436;-62
2023/05/07 06:53:12;;;;;;;9.47;8.20;;;;;;;;;;4995580;28;20506;-62
2023/05/07 06:55:38;;;;;;;10.17;7.60;;;;;;;;;;4995432;28;20499;-62
2023/05/07 06:58:05;;;;;;;8.57;7.90;;;;;;;;;;4995476;28;20978;-62
2023/05/07 07:00:31;;;;;;;8.10;7.47;;;;;;;;;;4995227;28;20887;-64
2023/05/07 07:02:58;;;;;;;9.20;7.10;;;;;;;;;;4995527;28;20390;-64
2023/05/07 07:05:24;;;;;;;7.63;7.23;;;;;;;;;;4994164;28;20433;-64
2023/05/07 07:07:52;;;;;;;8.07;7.60;;;;;;;;;;4995372;28;20437;-64
2023/05/07 07:10:21;;;;;;;11.63;7.40;;;;;;;;;;4994176;28;20434;-64
2023/05/07 07:12:48;;;;;;;7.30;6.80;;;;;;;;;;4995140;28;20437;-64
2023/05/07 07:15:16;;;;;;;6.70;6.30;;;;;;;;;;4995122;28;20429;-63
2023/05/07 07:17:42;;;;;;;9.23;6.30;;;;;;;;;;4995158;28;20437;-65
2023/05/07 07:20:08;;;;;;;5.97;5.50;;;;;;;;;;4995062;28;20915;-64
2023/05/07 07:22:34;;;;;;;10.50;9.50;;;;;;;;;;4995164;28;20574;-64
2023/05/07 07:25:00;;;;;;;8.13;7.43;;;;;;;;;;4995462;28;20439;-64
2023/05/07 07:27:26;;;;;;;6.90;6.30;;;;;;;;;;4995256;28;20500;-64
2023/05/07 07:29:52;;;;;;;7.70;6.47;;;;;;;;;;4993249;28;20791;-65
2023/05/07 07:32:18;;;;;;;8.70;7.20;;;;;;;;;;4994086;28;20424;-64
2023/05/07 07:34:44;;;;;;;6.67;6.17;;;;;;;;;;4993906;28;20956;-64
2023/05/07 07:37:10;;;;;;;6.37;5.90;;;;;;;;;;4994260;28;20447;-64
2023/05/07 07:39:37;;;;;;;6.33;5.43;;;;;;;;;;4995122;28;20522;-64
2023/05/07 07:42:03;;;;;;;6.60;6.10;;;;;;;;;;4994945;28;20477;-63
2023/05/07 07:44:29;;;;;;;7.77;6.40;;;;;;;;;;4995086;28;20443;-63
2023/05/07 07:46:55;;;;;;;6.97;6.57;;;;;;;;;;4994879;28;20504;-64
2023/05/07 07:49:21;;;;;;;7.83;7.27;;;;;;;;;;4994691;28;20443;-63
2023/05/07 07:51:47;;;;;;;7.13;6.60;;;;;;;;;;4994825;28;20452;-64
2023/05/07 07:54:13;;;;;;;7.37;5.67;;;;;;;;;;4994128;28;20476;-63
2023/05/07 07:56:41;;;;;;;6.23;5.70;;;;;;;;;;4993167;28;20982;-64
2023/05/07 07:59:07;;;;;;;7.07;6.40;;;;;;;;;;4994550;28;20569;-64
2023/05/07 08:01:33;;;;;;;6.73;6.33;;;;;;;;;;4994049;28;20522;-64
2023/05/07 08:03:59;;;;;;;6.97;6.50;;;;;;;;;;4992781;28;20655;-64
2023/05/07 08:06:26;;;;;;;21.70;19.47;;;;;;;;;;4993943;28;20411;-64
2023/05/07 08:08:52;;;;;;;10.57;9.50;;;;;;;;;;4994350;28;20523;-64
2023/05/07 08:11:21;;;;;;;6.27;5.67;;;;;;;;;;4994030;28;20566;-64
2023/05/07 08:13:47;;;;;;;6.53;6.07;;;;;;;;;;4994611;28;20449;-65
2023/05/07 08:16:14;;;;;;;6.20;5.90;;;;;;;;;;4994397;28;20430;-64
2023/05/07 08:18:40;;;;;;;6.83;5.70;;;;;;;;;;4993989;28;20563;-64
2023/05/07 08:21:06;;;;;;;7.10;6.23;;;;;;;;;;4992996;28;20795;-64
2023/05/07 08:23:34;;;;;;;6.90;6.23;;;;;;;;;;4993985;28;20410;-64
2023/05/07 08:26:00;;;;;;;6.43;5.97;;;;;;;;;;4991920;28;20441;-64
2023/05/07 08:28:26;;;;;;;6.53;6.10;;;;;;;;;;4993743;28;20936;-64
2023/05/07 08:30:52;;;;;;;6.17;5.60;;;;;;;;;;4993963;28;20419;-64
2023/05/07 08:33:18;;;;;;;5.60;5.30;;;;;;;;;;4994081;28;20468;-64
2023/05/07 08:35:46;;;;;;;6.70;5.80;;;;;;;;;;4994076;28;20421;-64
2023/05/07 08:38:12;;;;;;;6.37;5.70;;;;;;;;;;4993844;28;20469;-64
2023/05/07 08:40:40;;;;;;;6.90;6.30;;;;;;;;;;4993313;28;20412;-64
2023/05/07 08:43:07;;;;;;;6.20;5.70;;;;;;;;;;4993803;28;20436;-64
2023/05/07 08:45:34;;;;;;;6.47;6.00;;;;;;;;;;4993526;28;20417;-64
2023/05/07 08:48:00;;;;;;;6.47;5.90;;;;;;;;;;4993623;28;20453;-64
2023/05/07 08:50:28;;;;;;;8.20;5.67;;;;;;;;;;4993777;28;20425;-64
2023/05/07 08:52:56;;;;;;;9.67;8.77;;;;;;;;;;4993735;28;20912;-64
2023/05/07 08:55:22;;;;;;;10.00;6.87;;;;;;;;;;4993724;28;20425;-65
2023/05/07 08:57:48;;;;;;;6.60;6.10;;;;;;;;;;4993677;28;20484;-64
2023/05/07 09:00:14;;;;;;;9.50;6.50;;;;;;;;;;4993583;28;20434;-65
2023/05/07 09:02:40;;;;;;;6.20;5.60;;;;;;;;;;4993436;28;20446;-64
2023/05/07 09:05:06;;;;;;;6.00;5.60;;;;;;;;;;4993430;28;20442;-65
2023/05/07 09:07:35;;;;;;;10.40;6.07;;;;;;;;;;4993205;28;20426;-65
2023/05/07 09:10:05;;;;;;;5.70;5.20;;;;;;;;;;4993424;28;20452;-65
2023/05/07 09:12:31;;;;;;;8.73;5.00;;;;;;;;;;4993512;28;20783;-65
2023/05/07 09:15:00;;;;;;;5.70;5.33;;;;;;;;;;4993302;28;21034;-64
2023/05/07 09:17:26;;;;;;;6.07;5.70;;;;;;;;;;4993447;28;20421;-65
2023/05/07 09:19:53;;;;;;;5.10;4.70;;;;;;;;;;4993494;28;20476;-64
2023/05/07 09:22:19;;;;;;;5.60;5.10;;;;;;;;;;4992929;28;20511;-65
2023/05/07 09:24:51;;;;;;;5.43;4.90;;;;;;;;;;4993275;28;20858;-64
2023/05/07 09:27:20;;;;;;;11.40;5.80;;;;;;;;;;4992418;28;20417;-64
2023/05/07 09:29:48;;;;;;;5.30;5.00;;;;;;;;;;4993231;28;20424;-64
2023/05/07 09:32:15;;;;;;;7.07;6.60;;;;;;;;;;4993658;28;20790;-64
2023/05/07 09:34:42;;;;;;;8.83;7.97;;;;;;;;;;4993292;28;20923;-64
2023/05/07 09:37:08;;;;;;;7.20;6.60;;;;;;;;;;4993267;28;20420;-65
2023/05/07 09:39:44;;;;;;;6.27;5.83;;;;;;;;;;4993077;28;20490;-65
2023/05/07 09:42:14;;;;;;;7.33;5.53;;;;;;;;;;4992818;28;20437;-65
2023/05/07 09:44:41;;;;;;;5.80;5.40;;;;;;;;;;4993193;28;20759;-65
2023/05/07 09:47:07;;;;;;;6.20;4.93;;;;;;;;;;4993294;28;20419;-65
2023/05/07 09:49:37;;;;;;;4.60;4.30;;;;;;;;;;4992742;28;20445;-65
2023/05/07 09:52:06;;;;;;;3.90;3.73;;;;;;;;;;4992949;28;20459;-65
2023/05/07 09:54:33;;;;;;;7.63;4.40;;;;;;;;;;4996378;28;20442;-65
2023/05/07 09:57:00;;;;;;;6.17;5.47;;;;;;;;;;4997026;28;20900;-64
2023/05/07 09:59:26;;;;;;;4.83;4.50;;;;;;;;;;4997131;28;20862;-65
2023/05/07 10:01:52;;;;;;;5.00;4.70;;;;;;;;;;4996705;28;20851;-65
2023/05/07 10:04:19;;;;;;;4.87;4.47;;;;;;;;;;4996998;28;20804;-64
2023/05/07 10:06:45;;;;;;;4.07;3.90;;;;;;;;;;4997036;28;20894;-66
2023/05/07 10:09:11;;;;;;;9.23;3.97;;;;;;;;;;4995455;28;20474;-64
2023/05/07 10:11:37;;;;;;;7.83;3.63;;;;;;;;;;4996888;28;20936;-64
2023/05/07 10:14:05;;;;;;;4.97;3.30;;;;;;;;;;4996909;28;20406;-64
2023/05/07 10:16:38;;;;;;;2.90;2.80;;;;;;;;;;4995605;28;20472;-64
2023/05/07 10:19:04;;;;;;;3.40;3.10;;;;;;;;;;4996588;28;20478;-63
2023/05/07 10:21:34;;;;;;;3.90;3.70;;;;;;;;;;4995506;28;20432;-64
2023/05/07 10:24:03;;;;;;;5.37;3.90;;;;;;;;;;4996880;28;20417;-63
2023/05/07 10:26:30;;;;;;;4.80;4.20;;;;;;;;;;4996750;28;20518;-63
2023/05/07 10:29:06;;;;;;;3.90;3.70;;;;;;;;;;4996396;28;21090;-64
2023/05/07 10:31:51;;;;;;;4.83;4.37;;;;;;;;;;4996489;28;20432;-63
2023/05/07 10:34:20;;;;;;;6.20;4.40;;;;;;;;;;4996411;28;20993;-62
2023/05/07 10:36:46;;;;;;;5.13;3.70;;;;;;;;;;4996218;28;20434;-63
2023/05/07 10:39:14;;;;;;;5.30;4.97;;;;;;;;;;4996081;28;20463;-65
2023/05/07 10:41:40;;;;;;;5.60;5.07;;;;;;;;;;4994916;28;20423;-64
2023/05/07 10:44:06;;;;;;;5.67;5.30;;;;;;;;;;4996267;28;20427;-64
2023/05/07 10:46:35;;;;;;;5.93;5.50;;;;;;;;;;4995848;28;20472;-64
2023/05/07 10:49:01;;;;;;;7.90;6.20;;;;;;;;;;4996277;28;20424;-64
2023/05/07 10:51:28;;;;;;;8.03;7.33;;;;;;;;;;4996018;28;20580;-64
2023/05/07 10:54:12;;;;;;;7.83;6.97;;;;;;;;;;4995965;28;21100;-64
2023/05/07 10:56:47;;;;;;;8.23;7.40;;;;;;;;;;4996006;28;20430;-64
2023/05/07 10:59:30;;;;;;;8.33;7.70;;;;;;;;;;4995650;28;20990;-64
2023/05/07 11:01:57;;;;;;;11.47;10.53;;;;;;;;;;4995835;28;20446;-64
2023/05/07 11:04:27;;;;;;;9.27;8.50;;;;;;;;;;4995260;28;20413;-64
2023/05/07 11:07:16;;;;;;;9.87;8.00;;;;;;;;;;4995678;28;20432;-64
2023/05/07 11:09:55;;;;;;;10.60;8.40;;;;;;;;;;4987853;28;20439;-64
2023/05/07 11:12:37;;;;;;;8.73;8.00;;;;;;;;;;4995677;28;20830;-65
2023/05/07 11:15:06;;;;;;;11.70;8.17;;;;;;;;;;4995721;28;20428;-65
2023/05/07 11:17:34;;;;;;;7.57;6.80;;;;;;;;;;4995744;28;20414;-65
2023/05/07 11:20:00;;;;;;;6.80;6.17;;;;;;;;;;4995016;28;20476;-65
2023/05/07 11:22:33;;;;;;;7.13;6.53;;;;;;;;;;4995494;28;20932;-65
2023/05/07 11:25:05;;;;;;;5.47;5.17;;;;;;;;;;4995505;28;20503;-65
2023/05/07 11:27:31;;;;;;;5.90;4.73;;;;;;;;;;4995528;28;20953;-65
2023/05/07 11:29:57;;;;;;;5.00;4.80;;;;;;;;;;4995238;28;20500;-65
2023/05/07 11:32:24;;;;;;;5.10;4.73;;;;;;;;;;4995344;28;20827;-64
2023/05/07 11:34:53;;;;;;;5.90;5.50;;;;;;;;;;4995423;28;20419;-65
2023/05/07 11:37:20;;;;;;;5.57;5.17;;;;;;;;;;4995424;28;20414;-65
2023/05/07 11:39:48;;;;;;;7.57;5.53;;;;;;;;;;4995111;28;20476;-65
2023/05/07 11:42:28;;;;;;;6.37;5.90;;;;;;;;;;4995167;28;20459;-65
2023/05/07 11:44:54;;;;;;;6.63;6.10;;;;;;;;;;4995048;28;20406;-65
2023/05/07 11:47:21;;;;;;;7.70;7.20;;;;;;;;;;4994926;28;20423;-65
2023/05/07 11:49:48;;;;;;;6.37;5.70;;;;;;;;;;4994889;28;20886;-65
2023/05/07 11:52:14;;;;;;;6.40;5.73;;;;;;;;;;4994759;28;20435;-65
2023/05/07 11:54:40;;;;;;;12.10;6.33;;;;;;;;;;4995336;28;20439;-66
2023/05/07 11:57:07;;;;;;;7.90;7.30;;;;;;;;;;4994804;28;20960;-66
2023/05/07 11:59:40;;;;;;;10.17;9.30;;;;;;;;;;4994928;28;20561;-64
2023/05/07 12:02:06;;;;;;;8.43;5.50;;;;;;;;;;4994859;28;20417;-66
2023/05/07 12:04:32;;;;;;;6.47;5.87;;;;;;;;;;4994884;28;20878;-66
2023/05/07 12:06:58;;;;;;;6.27;5.77;;;;;;;;;;4994514;28;20493;-66
2023/05/07 12:09:24;;;;;;;6.00;5.50;;;;;;;;;;4994706;28;20859;-65
2023/05/07 12:11:53;;;;;;;5.93;5.63;;;;;;;;;;4994151;28;20440;-65
2023/05/07 12:14:19;;;;;;;6.43;6.10;;;;;;;;;;4992957;28;20460;-66
2023/05/07 12:16:45;;;;;;;6.37;5.77;;;;;;;;;;4993726;28;20415;-66
2023/05/07 12:19:12;;;;;;;6.53;5.20;;;;;;;;;;4994086;28;20473;-66
2023/05/07 12:21:38;;;;;;;5.70;5.30;;;;;;;;;;4994188;28;20451;-66
2023/05/07 12:24:04;;;;;;;7.10;5.67;;;;;;;;;;4994198;28;20416;-61
2023/05/07 12:26:33;;;;;;;5.13;4.93;;;;;;;;;;4994244;28;20440;-66
2023/05/07 12:28:59;;;;;;;4.67;4.30;;;;;;;;;;4994045;28;20424;-65
2023/05/07 12:31:28;;;;;;;5.00;4.80;;;;;;;;;;4994159;28;20445;-65
2023/05/07 12:33:54;;;;;;;5.10;4.90;;;;;;;;;;4994025;28;20491;-65
2023/05/07 12:36:21;;;;;;;4.60;4.20;;;;;;;;;;4994024;28;20864;-65
2023/05/07 12:38:50;;;;;;;5.43;5.00;;;;;;;;;;4993913;28;20457;-65
2023/05/07 12:41:16;;;;;;;4.17;3.97;;;;;;;;;;4994185;28;20785;-65
2023/05/07 12:43:45;;;;;;;5.07;4.77;;;;;;;;;;4993930;28;20420;-65
2023/05/07 12:46:16;;;;;;;4.93;4.53;;;;;;;;;;4993953;28;20444;-65
2023/05/07 12:48:46;;;;;;;4.83;4.53;;;;;;;;;;4994042;28;20884;-66
2023/05/07 12:51:13;;;;;;;4.47;4.17;;;;;;;;;;4993784;28;20447;-65
2023/05/07 12:53:45;;;;;;;4.37;3.97;;;;;;;;;;4993789;28;20422;-65
2023/05/07 12:56:11;;;;;;;5.00;4.67;;;;;;;;;;4993650;28;20840;-65
2023/05/07 12:58:37;;;;;;;4.40;4.10;;;;;;;;;;4993768;28;20471;-62
2023/05/07 13:01:06;;;;;;;5.03;4.67;;;;;;;;;;4993618;28;20439;-62
2023/05/07 13:03:34;;;;;;;4.87;4.63;;;;;;;;;;4993688;28;20446;-62
2023/05/07 13:06:03;;;;;;;5.43;4.93;;;;;;;;;;4993392;28;20409;-61
2023/05/07 13:08:33;;;;;;;5.30;4.90;;;;;;;;;;4993417;28;20430;-62
2023/05/07 13:11:03;;;;;;;6.67;6.10;;;;;;;;;;4993493;28;20446;-61
2023/05/07 13:13:32;;;;;;;7.70;6.17;;;;;;;;;;4993975;28;20425;-62
2023/05/07 13:16:00;;;;;;;6.47;5.97;;;;;;;;;;4993527;28;20426;-62
2023/05/07 13:18:26;;;;;;;5.87;5.47;;;;;;;;;;4993255;28;20466;-62
2023/05/07 13:20:53;;;;;;;7.20;6.53;;;;;;;;;;4993472;28;20793;-62
2023/05/07 13:23:19;;;;;;;6.23;5.60;;;;;;;;;;4993331;28;20426;-62
2023/05/07 13:25:45;;;;;;;6.20;5.60;;;;;;;;;;4993220;28;20956;-62
2023/05/07 13:28:11;;;;;;;4.80;4.60;;;;;;;;;;4993130;28;20461;-62
2023/05/07 13:30:38;;;;;;;7.83;5.30;;;;;;;;;;4993297;28;20501;-62
2023/05/07 13:33:04;;;;;;;4.70;4.30;;;;;;;;;;4993265;28;20433;-62
2023/05/07 13:35:30;;;;;;;7.03;5.70;;;;;;;;;;4993306;28;20473;-62
2023/05/07 13:37:56;;;;;;;5.70;5.00;;;;;;;;;;4993045;28;20891;-62
2023/05/07 13:40:22;;;;;;;3.90;3.70;;;;;;;;;;4993160;28;20421;-62
2023/05/07 13:42:49;;;;;;;2.73;2.63;;;;;;;;;;4993023;28;20438;-62
2023/05/07 13:45:15;;;;;;;2.90;2.77;;;;;;;;;;4993166;28;20415;-61
2023/05/07 13:47:41;;;;;;;3.20;3.10;;;;;;;;;;4993202;28;20575;-62
2023/05/07 13:50:08;;;;;;;4.50;4.10;;;;;;;;;;4991943;28;20439;-62
2023/05/07 13:52:34;;;;;;;5.40;2.60;;;;;;;;;;4993140;28;20459;-62
2023/05/07 13:55:03;;;;;;;1.90;1.77;;;;;;;;;;4993114;28;20883;-62
2023/05/07 13:57:29;;;;;;;2.03;1.40;;;;;;;;;;4993008;28;20861;-62
2023/05/07 13:59:55;;;;;;;1.30;1.30;;;;;;;;;;4992972;28;20474;-62
2023/05/07 14:02:21;;;;;;;1.90;1.80;;;;;;;;;;4992959;28;20416;-62
2023/05/07 14:04:47;;;;;;;2.10;2.00;;;;;;;;;;5022458;23;20845;-61
2023/05/07 14:07:13;;;;;;;1.60;1.60;;;;;;;;;;4973768;28;20445;-60
2023/05/07 14:09:41;;;;;;;1.80;1.70;;;;;;;;;;4973383;28;20407;-61
2023/05/07 14:12:07;;;;;;;1.80;1.80;;;;;;;;;;4972569;28;20444;-60
2023/05/07 14:14:36;;;;;;;2.23;2.13;;;;;;;;;;4972160;28;20417;-61
2023/05/07 14:17:04;;;;;;;1.67;1.67;;;;;;;;;;4973731;28;20803;-61
2023/05/07 14:19:30;;;;;;;1.30;1.30;;;;;;;;;;4971703;28;20509;-61
2023/05/07 14:21:58;;;;;;;1.30;1.30;;;;;;;;;;4973380;28;20923;-61
2023/05/07 14:24:27;;;;;;;1.47;1.37;;;;;;;;;;4973442;28;20428;-60
2023/05/07 14:26:53;;;;;;;2.83;1.70;;;;;;;;;;4972951;28;20414;-61
2023/05/07 14:29:19;;;;;;;1.57;1.57;;;;;;;;;;4973425;28;20525;-61
2023/05/07 14:31:45;;;;;;;2.03;1.50;;;;;;;;;;4972939;28;20436;-61
2023/05/07 14:34:11;;;;;;;1.90;1.90;;;;;;;;;;4973216;28;20425;-61
2023/05/07 14:36:38;;;;;;;2.40;1.63;;;;;;;;;;4972852;28;20994;-61
2023/05/07 14:39:04;;;;;;;4.73;4.50;;;;;;;;;;4972625;28;20512;-61
2023/05/07 14:41:31;;;;;;;2.13;2.03;;;;;;;;;;4976180;28;20451;-61
2023/05/07 14:43:58;;;;;;;1.70;1.60;;;;;;;;;;4976198;28;20436;-62